sensor_id;sensor_type;location;lat;lon;timestamp;temperature;humidity
17619;DHT22;8928;51.678;6.074;2023-07-16T00:02:33;17.60;99.90
17619;DHT22;8928;51.678;6.074;2023-07-16T00:05:21;17.50;99.90
17619;DHT22;8928;51.678;6.074;2023-07-16T00:08:08;17.40;99.90
17619;DHT22;8928;51.678;6.074;2023-07-16T00:10:55;17.30;99.90
17619;DHT22;8928;51.678;6.074;2023-07-16T00:13:42;17.30;99.90
17619;DHT22;8928;51.678;6.074;2023-07-16T00:16:32;17.20;99.90
17619;DHT22;8928;51.678;6.074;2023-07-16T00:19:21;17.10;99.90
17619;DHT22;8928;51.678;6.074;2023-07-16T00:22:08;17.00;99.90
17619;DHT22;8928;51.678;6.074;2023-07-16T00:24:55;16.90;99.90
17619;DHT22;8928;51.678;6.074;2023-07-16T00:27:42;16.70;99.90
17619;DHT22;8928;51.678;6.074;2023-07-16T00:30:29;16.70;99.90
17619;DHT22;8928;51.678;6.074;2023-07-16T00:33:16;16.50;99.90
17619;DHT22;8928;51.678;6.074;2023-07-16T00:36:05;16.40;99.90
17619;DHT22;8928;51.678;6.074;2023-07-16T00:38:52;16.30;99.90
17619;DHT22;8928;51.678;6.074;2023-07-16T00:41:39;16.30;99.90
17619;DHT22;8928;51.678;6.074;2023-07-16T00:44:26;16.20;99.90
17619;DHT22;8928;51.678;6.074;2023-07-16T00:47:13;16.10;99.90
17619;DHT22;8928;51.678;6.074;2023-07-16T00:50:01;16.00;99.90
17619;DHT22;8928;51.678;6.074;2023-07-16T00:52:49;16.00;99.90
17619;DHT22;8928;51.678;6.074;2023-07-16T00:55:36;16.00;99.90
17619;DHT22;8928;51.678;6.074;2023-07-16T00:58:23;15.90;99.90
17619;DHT22;8928;51.678;6.074;2023-07-16T01:01:11;15.90;99.90
17619;DHT22;8928;51.678;6.074;2023-07-16T01:03:58;15.80;99.90
17619;DHT22;8928;51.678;6.074;2023-07-16T01:06:49;15.80;99.90
17619;DHT22;8928;51.678;6.074;2023-07-16T01:09:42;15.80;99.90
17619;DHT22;8928;51.678;6.074;2023-07-16T01:12:31;15.70;99.90
17619;DHT22;8928;51.678;6.074;2023-07-16T01:15:19;15.70;99.90
17619;DHT22;8928;51.678;6.074;2023-07-16T01:18:06;15.70;99.90
17619;DHT22;8928;51.678;6.074;2023-07-16T01:20:53;15.80;99.90
17619;DHT22;8928;51.678;6.074;2023-07-16T01:24:00;15.80;99.90
17619;DHT22;8928;51.678;6.074;2023-07-16T01:27:01;15.90;99.90
17619;DHT22;8928;51.678;6.074;2023-07-16T01:29:54;15.90;99.90
17619;DHT22;8928;51.678;6.074;2023-07-16T01:32:44;15.90;99.90
17619;DHT22;8928;51.678;6.074;2023-07-16T01:35:33;15.90;99.90
17619;DHT22;8928;51.678;6.074;2023-07-16T01:38:21;16.00;99.90
17619;DHT22;8928;51.678;6.074;2023-07-16T01:41:09;16.00;99.90
17619;DHT22;8928;51.678;6.074;2023-07-16T01:43:56;16.10;99.90
17619;DHT22;8928;51.678;6.074;2023-07-16T01:46:46;16.10;99.90
17619;DHT22;8928;51.678;6.074;2023-07-16T01:49:36;16.20;99.90
17619;DHT22;8928;51.678;6.074;2023-07-16T01:52:23;16.20;99.90
17619;DHT22;8928;51.678;6.074;2023-07-16T01:55:10;16.20;99.90
17619;DHT22;8928;51.678;6.074;2023-07-16T01:57:57;16.20;99.90
17619;DHT22;8928;51.678;6.074;2023-07-16T02:00:44;16.10;99.90
17619;DHT22;8928;51.678;6.074;2023-07-16T02:03:32;16.10;99.90
17619;DHT22;8928;51.678;6.074;2023-07-16T02:06:19;16.10;99.90
17619;DHT22;8928;51.678;6.074;2023-07-16T02:09:06;16.10;99.90
17619;DHT22;8928;51.678;6.074;2023-07-16T02:11:53;16.00;99.90
17619;DHT22;8928;51.678;6.074;2023-07-16T02:14:40;16.10;99.90
17619;DHT22;8928;51.678;6.074;2023-07-16T02:17:28;16.00;99.90
17619;DHT22;8928;51.678;6.074;2023-07-16T02:20:16;16.00;99.90
17619;DHT22;8928;51.678;6.074;2023-07-16T02:23:03;15.90;99.90
17619;DHT22;8928;51.678;6.074;2023-07-16T02:25:50;15.80;99.90
17619;DHT22;8928;51.678;6.074;2023-07-16T02:28:37;15.80;99.90
17619;DHT22;8928;51.678;6.074;2023-07-16T02:31:24;15.70;99.90
17619;DHT22;8928;51.678;6.074;2023-07-16T02:34:11;15.60;99.90
17619;DHT22;8928;51.678;6.074;2023-07-16T02:37:00;15.50;99.90
17619;DHT22;8928;51.678;6.074;2023-07-16T02:39:47;15.50;99.90
17619;DHT22;8928;51.678;6.074;2023-07-16T02:42:34;15.40;99.90
17619;DHT22;8928;51.678;6.074;2023-07-16T02:45:21;15.40;99.90
17619;DHT22;8928;51.678;6.074;2023-07-16T02:48:08;15.40;99.90
17619;DHT22;8928;51.678;6.074;2023-07-16T02:50:55;15.30;99.90
17619;DHT22;8928;51.678;6.074;2023-07-16T02:53:43;15.30;99.90
17619;DHT22;8928;51.678;6.074;2023-07-16T02:56:30;15.20;99.90
17619;DHT22;8928;51.678;6.074;2023-07-16T02:59:17;15.20;99.90
17619;DHT22;8928;51.678;6.074;2023-07-16T03:02:04;15.20;99.90
17619;DHT22;8928;51.678;6.074;2023-07-16T03:04:51;15.20;99.90
17619;DHT22;8928;51.678;6.074;2023-07-16T03:07:39;15.10;99.90
17619;DHT22;8928;51.678;6.074;2023-07-16T03:10:27;15.10;99.90
17619;DHT22;8928;51.678;6.074;2023-07-16T03:13:14;15.20;99.90
17619;DHT22;8928;51.678;6.074;2023-07-16T03:16:01;15.10;99.90
17619;DHT22;8928;51.678;6.074;2023-07-16T03:18:48;15.10;99.90
17619;DHT22;8928;51.678;6.074;2023-07-16T03:21:35;15.20;99.90
17619;DHT22;8928;51.678;6.074;2023-07-16T03:24:22;15.20;99.90
17619;DHT22;8928;51.678;6.074;2023-07-16T03:27:11;15.30;99.90
17619;DHT22;8928;51.678;6.074;2023-07-16T03:29:58;15.40;99.90
17619;DHT22;8928;51.678;6.074;2023-07-16T03:32:45;15.40;99.90
17619;DHT22;8928;51.678;6.074;2023-07-16T03:35:32;15.40;99.90
17619;DHT22;8928;51.678;6.074;2023-07-16T03:38:19;15.40;99.90
17619;DHT22;8928;51.678;6.074;2023-07-16T03:41:06;15.40;99.90
17619;DHT22;8928;51.678;6.074;2023-07-16T03:43:54;15.30;99.90
17619;DHT22;8928;51.678;6.074;2023-07-16T03:46:41;15.20;99.90
17619;DHT22;8928;51.678;6.074;2023-07-16T03:49:28;15.20;99.90
17619;DHT22;8928;51.678;6.074;2023-07-16T03:52:16;15.10;99.90
17619;DHT22;8928;51.678;6.074;2023-07-16T03:55:03;15.10;99.90
17619;DHT22;8928;51.678;6.074;2023-07-16T03:57:50;15.00;99.90
17619;DHT22;8928;51.678;6.074;2023-07-16T04:00:41;14.90;99.90
17619;DHT22;8928;51.678;6.074;2023-07-16T04:03:28;14.80;99.90
17619;DHT22;8928;51.678;6.074;2023-07-16T04:06:15;14.70;99.90
17619;DHT22;8928;51.678;6.074;2023-07-16T04:09:02;14.70;99.90
17619;DHT22;8928;51.678;6.074;2023-07-16T04:11:50;14.60;99.90
17619;DHT22;8928;51.678;6.074;2023-07-16T04:14:37;14.50;99.90
17619;DHT22;8928;51.678;6.074;2023-07-16T04:17:26;14.50;99.90
17619;DHT22;8928;51.678;6.074;2023-07-16T04:20:13;14.40;99.90
17619;DHT22;8928;51.678;6.074;2023-07-16T04:23:00;14.40;99.90
17619;DHT22;8928;51.678;6.074;2023-07-16T04:25:48;14.40;99.90
17619;DHT22;8928;51.678;6.074;2023-07-16T04:28:37;14.40;99.90
17619;DHT22;8928;51.678;6.074;2023-07-16T04:31:25;14.40;99.90
17619;DHT22;8928;51.678;6.074;2023-07-16T04:34:13;14.40;99.90
17619;DHT22;8928;51.678;6.074;2023-07-16T04:37:00;14.50;99.90
17619;DHT22;8928;51.678;6.074;2023-07-16T04:39:47;14.50;99.90
17619;DHT22;8928;51.678;6.074;2023-07-16T04:42:34;14.60;99.90
17619;DHT22;8928;51.678;6.074;2023-07-16T04:45:21;14.60;99.90
17619;DHT22;8928;51.678;6.074;2023-07-16T04:48:08;14.60;99.90
17619;DHT22;8928;51.678;6.074;2023-07-16T04:50:57;14.70;99.90
17619;DHT22;8928;51.678;6.074;2023-07-16T04:53:44;14.70;99.90
17619;DHT22;8928;51.678;6.074;2023-07-16T04:56:31;14.80;99.90
17619;DHT22;8928;51.678;6.074;2023-07-16T04:59:18;14.80;99.90
17619;DHT22;8928;51.678;6.074;2023-07-16T05:02:06;14.90;99.90
17619;DHT22;8928;51.678;6.074;2023-07-16T05:04:53;14.90;99.90
17619;DHT22;8928;51.678;6.074;2023-07-16T05:07:41;15.00;99.90
17619;DHT22;8928;51.678;6.074;2023-07-16T05:10:28;15.00;99.90
17619;DHT22;8928;51.678;6.074;2023-07-16T05:13:15;15.10;99.90
17619;DHT22;8928;51.678;6.074;2023-07-16T05:16:02;15.20;99.90
17619;DHT22;8928;51.678;6.074;2023-07-16T05:18:49;15.20;99.90
17619;DHT22;8928;51.678;6.074;2023-07-16T05:21:37;15.30;99.90
17619;DHT22;8928;51.678;6.074;2023-07-16T05:24:25;15.30;99.90
17619;DHT22;8928;51.678;6.074;2023-07-16T05:27:12;15.40;99.90
17619;DHT22;8928;51.678;6.074;2023-07-16T05:29:59;15.50;99.90
17619;DHT22;8928;51.678;6.074;2023-07-16T05:32:46;15.60;99.90
17619;DHT22;8928;51.678;6.074;2023-07-16T05:35:33;15.70;99.90
17619;DHT22;8928;51.678;6.074;2023-07-16T05:38:21;15.80;99.90
17619;DHT22;8928;51.678;6.074;2023-07-16T05:41:09;15.90;99.90
17619;DHT22;8928;51.678;6.074;2023-07-16T05:43:56;16.00;99.90
17619;DHT22;8928;51.678;6.074;2023-07-16T05:46:43;16.00;99.90
17619;DHT22;8928;51.678;6.074;2023-07-16T05:49:30;16.10;99.90
17619;DHT22;8928;51.678;6.074;2023-07-16T05:52:17;16.20;99.90
17619;DHT22;8928;51.678;6.074;2023-07-16T05:55:05;16.20;99.90
17619;DHT22;8928;51.678;6.074;2023-07-16T05:57:53;16.30;99.90
17619;DHT22;8928;51.678;6.074;2023-07-16T06:00:40;16.30;99.90
17619;DHT22;8928;51.678;6.074;2023-07-16T06:03:27;16.30;99.90
17619;DHT22;8928;51.678;6.074;2023-07-16T06:06:14;16.30;99.90
17619;DHT22;8928;51.678;6.074;2023-07-16T06:09:01;16.40;99.90
17619;DHT22;8928;51.678;6.074;2023-07-16T06:11:48;16.50;99.90
17619;DHT22;8928;51.678;6.074;2023-07-16T06:14:37;16.50;99.90
17619;DHT22;8928;51.678;6.074;2023-07-16T06:17:24;16.60;99.90
17619;DHT22;8928;51.678;6.074;2023-07-16T06:20:11;16.60;99.90
17619;DHT22;8928;51.678;6.074;2023-07-16T06:22:58;16.60;99.90
17619;DHT22;8928;51.678;6.074;2023-07-16T06:25:45;16.70;99.90
17619;DHT22;8928;51.678;6.074;2023-07-16T06:28:34;16.80;99.90
17619;DHT22;8928;51.678;6.074;2023-07-16T06:31:22;16.90;99.90
17619;DHT22;8928;51.678;6.074;2023-07-16T06:34:09;17.00;99.90
17619;DHT22;8928;51.678;6.074;2023-07-16T06:36:56;17.00;99.90
17619;DHT22;8928;51.678;6.074;2023-07-16T06:39:43;17.10;99.90
17619;DHT22;8928;51.678;6.074;2023-07-16T06:42:30;17.10;99.90
17619;DHT22;8928;51.678;6.074;2023-07-16T06:45:17;17.20;99.90
17619;DHT22;8928;51.678;6.074;2023-07-16T06:48:06;17.30;99.90
17619;DHT22;8928;51.678;6.074;2023-07-16T06:50:54;17.40;99.90
17619;DHT22;8928;51.678;6.074;2023-07-16T06:53:41;17.50;99.90
17619;DHT22;8928;51.678;6.074;2023-07-16T06:56:28;17.50;99.90
17619;DHT22;8928;51.678;6.074;2023-07-16T06:59:15;17.60;99.90
17619;DHT22;8928;51.678;6.074;2023-07-16T07:02:02;17.60;99.90
17619;DHT22;8928;51.678;6.074;2023-07-16T07:04:50;17.70;99.90
17619;DHT22;8928;51.678;6.074;2023-07-16T07:07:37;17.80;99.90
17619;DHT22;8928;51.678;6.074;2023-07-16T07:10:24;17.80;99.90
17619;DHT22;8928;51.678;6.074;2023-07-16T07:13:11;17.90;99.90
17619;DHT22;8928;51.678;6.074;2023-07-16T07:15:58;18.00;99.90
17619;DHT22;8928;51.678;6.074;2023-07-16T07:18:46;18.10;99.90
17619;DHT22;8928;51.678;6.074;2023-07-16T07:21:34;18.20;99.90
17619;DHT22;8928;51.678;6.074;2023-07-16T07:24:21;18.30;99.90
17619;DHT22;8928;51.678;6.074;2023-07-16T07:27:08;18.30;99.90
17619;DHT22;8928;51.678;6.074;2023-07-16T07:29:55;18.30;99.90
17619;DHT22;8928;51.678;6.074;2023-07-16T07:32:42;18.30;99.90
17619;DHT22;8928;51.678;6.074;2023-07-16T07:35:29;18.50;99.90
17619;DHT22;8928;51.678;6.074;2023-07-16T07:38:17;18.60;99.90
17619;DHT22;8928;51.678;6.074;2023-07-16T07:41:04;18.60;99.90
17619;DHT22;8928;51.678;6.074;2023-07-16T07:43:51;18.60;99.90
17619;DHT22;8928;51.678;6.074;2023-07-16T07:46:39;18.80;99.90
17619;DHT22;8928;51.678;6.074;2023-07-16T07:49:26;18.90;99.90
17619;DHT22;8928;51.678;6.074;2023-07-16T07:52:13;19.00;99.90
17619;DHT22;8928;51.678;6.074;2023-07-16T07:55:01;19.00;99.90
17619;DHT22;8928;51.678;6.074;2023-07-16T07:57:48;19.10;99.90
17619;DHT22;8928;51.678;6.074;2023-07-16T08:00:35;19.20;99.90
17619;DHT22;8928;51.678;6.074;2023-07-16T08:03:22;19.40;99.90
17619;DHT22;8928;51.678;6.074;2023-07-16T08:06:09;19.60;99.90
17619;DHT22;8928;51.678;6.074;2023-07-16T08:08:57;19.50;99.90
17619;DHT22;8928;51.678;6.074;2023-07-16T08:11:46;19.50;99.90
17619;DHT22;8928;51.678;6.074;2023-07-16T08:14:33;19.60;99.90
17619;DHT22;8928;51.678;6.074;2023-07-16T08:17:20;19.90;99.90
17619;DHT22;8928;51.678;6.074;2023-07-16T08:20:08;19.80;99.90
17619;DHT22;8928;51.678;6.074;2023-07-16T08:22:55;20.00;99.90
17619;DHT22;8928;51.678;6.074;2023-07-16T08:25:43;20.50;99.90
17619;DHT22;8928;51.678;6.074;2023-07-16T08:28:31;20.60;99.90
17619;DHT22;8928;51.678;6.074;2023-07-16T08:31:18;20.80;99.90
17619;DHT22;8928;51.678;6.074;2023-07-16T08:34:05;21.20;99.90
17619;DHT22;8928;51.678;6.074;2023-07-16T08:36:52;20.90;99.90
17619;DHT22;8928;51.678;6.074;2023-07-16T08:39:39;20.70;99.90
17619;DHT22;8928;51.678;6.074;2023-07-16T08:42:27;20.80;99.90
17619;DHT22;8928;51.678;6.074;2023-07-16T08:45:15;20.80;99.90
17619;DHT22;8928;51.678;6.074;2023-07-16T08:48:03;20.80;99.90
17619;DHT22;8928;51.678;6.074;2023-07-16T08:50:50;20.80;99.90
17619;DHT22;8928;51.678;6.074;2023-07-16T08:53:37;20.60;99.90
17619;DHT22;8928;51.678;6.074;2023-07-16T08:56:24;20.60;99.90
17619;DHT22;8928;51.678;6.074;2023-07-16T08:59:11;20.90;99.90
17619;DHT22;8928;51.678;6.074;2023-07-16T09:02:01;21.40;99.90
17619;DHT22;8928;51.678;6.074;2023-07-16T09:04:48;21.80;99.90
17619;DHT22;8928;51.678;6.074;2023-07-16T09:07:36;22.10;99.90
17619;DHT22;8928;51.678;6.074;2023-07-16T09:10:24;22.50;99.90
17619;DHT22;8928;51.678;6.074;2023-07-16T09:13:11;22.50;99.90
17619;DHT22;8928;51.678;6.074;2023-07-16T09:15:58;22.80;99.90
17619;DHT22;8928;51.678;6.074;2023-07-16T09:18:47;22.90;99.90
17619;DHT22;8928;51.678;6.074;2023-07-16T09:21:34;22.60;99.90
17619;DHT22;8928;51.678;6.074;2023-07-16T09:24:21;22.50;99.90
17619;DHT22;8928;51.678;6.074;2023-07-16T09:27:11;22.60;99.90
17619;DHT22;8928;51.678;6.074;2023-07-16T09:29:58;22.70;99.90
17619;DHT22;8928;51.678;6.074;2023-07-16T09:32:48;22.90;99.90
17619;DHT22;8928;51.678;6.074;2023-07-16T09:35:37;22.90;99.90
17619;DHT22;8928;51.678;6.074;2023-07-16T09:38:24;22.90;99.90
17619;DHT22;8928;51.678;6.074;2023-07-16T09:41:11;23.10;99.90
17619;DHT22;8928;51.678;6.074;2023-07-16T09:43:58;23.30;99.90
17619;DHT22;8928;51.678;6.074;2023-07-16T09:46:46;23.30;99.90
17619;DHT22;8928;51.678;6.074;2023-07-16T09:49:33;23.10;99.90
17619;DHT22;8928;51.678;6.074;2023-07-16T09:52:22;23.40;99.90
17619;DHT22;8928;51.678;6.074;2023-07-16T09:55:09;23.90;99.90
17619;DHT22;8928;51.678;6.074;2023-07-16T09:57:57;24.00;99.90
17619;DHT22;8928;51.678;6.074;2023-07-16T10:00:47;23.80;99.90
17619;DHT22;8928;51.678;6.074;2023-07-16T10:03:35;23.40;99.90
17619;DHT22;8928;51.678;6.074;2023-07-16T10:06:22;23.80;99.90
17619;DHT22;8928;51.678;6.074;2023-07-16T10:09:10;24.00;99.90
17619;DHT22;8928;51.678;6.074;2023-07-16T10:12:07;23.90;99.90
17619;DHT22;8928;51.678;6.074;2023-07-16T10:14:55;23.30;99.90
17619;DHT22;8928;51.678;6.074;2023-07-16T10:17:49;23.30;99.90
17619;DHT22;8928;51.678;6.074;2023-07-16T10:20:37;23.30;99.90
17619;DHT22;8928;51.678;6.074;2023-07-16T10:23:37;23.40;99.90
17619;DHT22;8928;51.678;6.074;2023-07-16T10:26:28;23.00;99.90
17619;DHT22;8928;51.678;6.074;2023-07-16T10:29:15;22.90;99.90
17619;DHT22;8928;51.678;6.074;2023-07-16T10:32:03;23.20;99.90
17619;DHT22;8928;51.678;6.074;2023-07-16T10:34:53;23.30;99.90
17619;DHT22;8928;51.678;6.074;2023-07-16T10:37:40;23.50;99.90
17619;DHT22;8928;51.678;6.074;2023-07-16T10:40:27;23.70;99.90
17619;DHT22;8928;51.678;6.074;2023-07-16T10:43:16;23.20;99.90
17619;DHT22;8928;51.678;6.074;2023-07-16T10:46:03;22.90;99.90
17619;DHT22;8928;51.678;6.074;2023-07-16T10:48:50;23.10;99.90
17619;DHT22;8928;51.678;6.074;2023-07-16T10:51:37;23.10;99.90
17619;DHT22;8928;51.678;6.074;2023-07-16T10:54:24;23.10;99.90
17619;DHT22;8928;51.678;6.074;2023-07-16T10:57:11;23.30;99.90
17619;DHT22;8928;51.678;6.074;2023-07-16T11:00:00;23.80;99.90
17619;DHT22;8928;51.678;6.074;2023-07-16T11:02:48;23.90;99.90
17619;DHT22;8928;51.678;6.074;2023-07-16T11:05:36;23.80;99.90
17619;DHT22;8928;51.678;6.074;2023-07-16T11:08:23;24.20;99.90
17619;DHT22;8928;51.678;6.074;2023-07-16T11:11:10;24.30;99.90
17619;DHT22;8928;51.678;6.074;2023-07-16T11:13:57;24.60;99.90
17619;DHT22;8928;51.678;6.074;2023-07-16T11:16:45;24.80;99.90
17619;DHT22;8928;51.678;6.074;2023-07-16T11:19:34;24.70;99.90
17619;DHT22;8928;51.678;6.074;2023-07-16T11:22:25;24.40;99.90
17619;DHT22;8928;51.678;6.074;2023-07-16T11:25:12;24.20;99.90
17619;DHT22;8928;51.678;6.074;2023-07-16T11:28:01;24.30;99.90
17619;DHT22;8928;51.678;6.074;2023-07-16T11:30:48;24.40;99.90
17619;DHT22;8928;51.678;6.074;2023-07-16T11:33:37;24.70;99.90
17619;DHT22;8928;51.678;6.074;2023-07-16T11:36:24;25.20;99.90
17619;DHT22;8928;51.678;6.074;2023-07-16T11:39:11;25.50;99.90
17619;DHT22;8928;51.678;6.074;2023-07-16T11:41:58;25.70;99.90
17619;DHT22;8928;51.678;6.074;2023-07-16T11:44:49;25.50;99.90
17619;DHT22;8928;51.678;6.074;2023-07-16T11:47:36;25.20;99.90
17619;DHT22;8928;51.678;6.074;2023-07-16T11:50:25;25.00;99.90
17619;DHT22;8928;51.678;6.074;2023-07-16T11:53:12;24.90;99.90
17619;DHT22;8928;51.678;6.074;2023-07-16T11:55:59;24.70;99.90
17619;DHT22;8928;51.678;6.074;2023-07-16T11:58:46;24.60;99.90
17619;DHT22;8928;51.678;6.074;2023-07-16T12:01:33;24.40;99.90
17619;DHT22;8928;51.678;6.074;2023-07-16T12:04:20;24.50;99.90
17619;DHT22;8928;51.678;6.074;2023-07-16T12:07:09;24.30;99.90
17619;DHT22;8928;51.678;6.074;2023-07-16T12:09:56;24.10;99.90
17619;DHT22;8928;51.678;6.074;2023-07-16T12:12:43;24.20;99.90
17619;DHT22;8928;51.678;6.074;2023-07-16T12:15:30;24.20;99.90
17619;DHT22;8928;51.678;6.074;2023-07-16T12:18:18;24.00;99.90
17619;DHT22;8928;51.678;6.074;2023-07-16T12:21:05;24.20;99.90
17619;DHT22;8928;51.678;6.074;2023-07-16T12:23:53;23.90;99.90
17619;DHT22;8928;51.678;6.074;2023-07-16T12:26:40;23.60;99.90
17619;DHT22;8928;51.678;6.074;2023-07-16T12:29:27;23.90;99.90
17619;DHT22;8928;51.678;6.074;2023-07-16T12:32:14;24.40;99.90
17619;DHT22;8928;51.678;6.074;2023-07-16T12:35:01;24.90;99.90
17619;DHT22;8928;51.678;6.074;2023-07-16T12:37:50;25.30;99.90
17619;DHT22;8928;51.678;6.074;2023-07-16T12:40:38;25.80;99.90
17619;DHT22;8928;51.678;6.074;2023-07-16T12:43:26;26.20;99.90
17619;DHT22;8928;51.678;6.074;2023-07-16T12:46:13;26.10;99.90
17619;DHT22;8928;51.678;6.074;2023-07-16T12:49:00;26.10;99.90
17619;DHT22;8928;51.678;6.074;2023-07-16T12:51:47;27.10;99.90
17619;DHT22;8928;51.678;6.074;2023-07-16T12:54:34;27.60;99.90
17619;DHT22;8928;51.678;6.074;2023-07-16T12:57:23;28.70;99.90
17619;DHT22;8928;51.678;6.074;2023-07-16T13:00:10;28.30;99.90
17619;DHT22;8928;51.678;6.074;2023-07-16T13:02:58;28.00;99.90
17619;DHT22;8928;51.678;6.074;2023-07-16T13:05:45;28.30;99.90
17619;DHT22;8928;51.678;6.074;2023-07-16T13:08:32;28.60;99.90
17619;DHT22;8928;51.678;6.074;2023-07-16T13:11:20;29.60;99.90
17619;DHT22;8928;51.678;6.074;2023-07-16T13:14:10;29.60;99.90
17619;DHT22;8928;51.678;6.074;2023-07-16T13:16:57;29.70;99.90
17619;DHT22;8928;51.678;6.074;2023-07-16T13:19:44;28.30;99.90
17619;DHT22;8928;51.678;6.074;2023-07-16T13:22:31;28.30;99.90
17619;DHT22;8928;51.678;6.074;2023-07-16T13:25:18;28.00;99.90
17619;DHT22;8928;51.678;6.074;2023-07-16T13:28:05;27.60;99.90
17619;DHT22;8928;51.678;6.074;2023-07-16T13:30:55;27.10;99.90
17619;DHT22;8928;51.678;6.074;2023-07-16T13:33:42;27.30;99.90
17619;DHT22;8928;51.678;6.074;2023-07-16T13:36:29;28.30;99.90
17619;DHT22;8928;51.678;6.074;2023-07-16T13:39:16;27.40;99.90
17619;DHT22;8928;51.678;6.074;2023-07-16T13:42:04;26.80;99.90
17619;DHT22;8928;51.678;6.074;2023-07-16T13:44:51;27.30;99.90
17619;DHT22;8928;51.678;6.074;2023-07-16T13:47:40;28.60;99.90
17619;DHT22;8928;51.678;6.074;2023-07-16T13:50:27;29.40;99.90
17619;DHT22;8928;51.678;6.074;2023-07-16T13:53:14;29.50;99.90
17619;DHT22;8928;51.678;6.074;2023-07-16T13:56:01;29.40;99.90
17619;DHT22;8928;51.678;6.074;2023-07-16T13:58:48;29.40;99.90
17619;DHT22;8928;51.678;6.074;2023-07-16T14:01:38;30.00;99.90
17619;DHT22;8928;51.678;6.074;2023-07-16T14:04:27;28.60;99.90
17619;DHT22;8928;51.678;6.074;2023-07-16T14:07:14;29.00;99.90
17619;DHT22;8928;51.678;6.074;2023-07-16T14:10:01;29.80;99.90
17619;DHT22;8928;51.678;6.074;2023-07-16T14:12:48;29.50;99.90
17619;DHT22;8928;51.678;6.074;2023-07-16T14:15:35;29.60;99.90
17619;DHT22;8928;51.678;6.074;2023-07-16T14:18:22;29.20;99.90
17619;DHT22;8928;51.678;6.074;2023-07-16T14:21:11;27.70;99.90
17619;DHT22;8928;51.678;6.074;2023-07-16T14:23:58;26.80;99.90
17619;DHT22;8928;51.678;6.074;2023-07-16T14:26:45;26.40;99.90
17619;DHT22;8928;51.678;6.074;2023-07-16T14:29:32;26.90;99.90
17619;DHT22;8928;51.678;6.074;2023-07-16T14:32:19;26.80;99.90
17619;DHT22;8928;51.678;6.074;2023-07-16T14:35:07;26.50;99.90
17619;DHT22;8928;51.678;6.074;2023-07-16T14:37:55;26.50;99.90
17619;DHT22;8928;51.678;6.074;2023-07-16T14:40:42;27.70;99.90
17619;DHT22;8928;51.678;6.074;2023-07-16T14:43:29;27.90;99.90
17619;DHT22;8928;51.678;6.074;2023-07-16T14:46:16;26.90;99.90
17619;DHT22;8928;51.678;6.074;2023-07-16T14:49:04;26.60;99.90
17619;DHT22;8928;51.678;6.074;2023-07-16T14:51:52;26.20;99.90
17619;DHT22;8928;51.678;6.074;2023-07-16T14:54:40;25.90;99.90
17619;DHT22;8928;51.678;6.074;2023-07-16T14:57:27;26.30;99.90
17619;DHT22;8928;51.678;6.074;2023-07-16T15:00:15;28.00;99.90
17619;DHT22;8928;51.678;6.074;2023-07-16T15:03:02;28.40;99.90
17619;DHT22;8928;51.678;6.074;2023-07-16T15:05:55;29.10;99.90
17619;DHT22;8928;51.678;6.074;2023-07-16T15:08:43;29.40;99.90
17619;DHT22;8928;51.678;6.074;2023-07-16T15:11:31;28.30;99.90
17619;DHT22;8928;51.678;6.074;2023-07-16T15:14:20;27.80;99.90
17619;DHT22;8928;51.678;6.074;2023-07-16T15:17:07;27.40;99.90
17619;DHT22;8928;51.678;6.074;2023-07-16T15:19:54;26.70;99.90
17619;DHT22;8928;51.678;6.074;2023-07-16T15:22:41;26.60;99.90
17619;DHT22;8928;51.678;6.074;2023-07-16T15:25:28;26.10;99.90
17619;DHT22;8928;51.678;6.074;2023-07-16T15:28:16;25.90;99.90
17619;DHT22;8928;51.678;6.074;2023-07-16T15:31:04;25.60;99.90
17619;DHT22;8928;51.678;6.074;2023-07-16T15:33:51;25.20;99.90
17619;DHT22;8928;51.678;6.074;2023-07-16T15:36:38;24.70;99.90
17619;DHT22;8928;51.678;6.074;2023-07-16T15:39:25;24.50;99.90
17619;DHT22;8928;51.678;6.074;2023-07-16T15:42:12;24.30;99.90
17619;DHT22;8928;51.678;6.074;2023-07-16T15:45:01;24.20;99.90
17619;DHT22;8928;51.678;6.074;2023-07-16T15:47:48;24.40;99.90
17619;DHT22;8928;51.678;6.074;2023-07-16T15:50:40;24.60;99.90
17619;DHT22;8928;51.678;6.074;2023-07-16T15:53:27;24.80;99.90
17619;DHT22;8928;51.678;6.074;2023-07-16T15:56:14;24.70;99.90
17619;DHT22;8928;51.678;6.074;2023-07-16T15:59:01;24.70;99.90
17619;DHT22;8928;51.678;6.074;2023-07-16T16:01:50;24.60;99.90
17619;DHT22;8928;51.678;6.074;2023-07-16T16:04:39;24.30;99.90
17619;DHT22;8928;51.678;6.074;2023-07-16T16:07:26;24.00;99.90
17619;DHT22;8928;51.678;6.074;2023-07-16T16:10:13;23.70;99.90
17619;DHT22;8928;51.678;6.074;2023-07-16T16:13:02;23.90;99.90
17619;DHT22;8928;51.678;6.074;2023-07-16T16:15:49;24.00;99.90
17619;DHT22;8928;51.678;6.074;2023-07-16T16:18:37;23.80;99.90
17619;DHT22;8928;51.678;6.074;2023-07-16T16:21:24;23.40;99.90
17619;DHT22;8928;51.678;6.074;2023-07-16T16:24:11;23.00;99.90
17619;DHT22;8928;51.678;6.074;2023-07-16T16:26:58;22.70;99.90
17619;DHT22;8928;51.678;6.074;2023-07-16T16:29:46;22.60;99.90
17619;DHT22;8928;51.678;6.074;2023-07-16T16:32:33;22.50;99.90
17619;DHT22;8928;51.678;6.074;2023-07-16T16:35:21;22.50;99.90
17619;DHT22;8928;51.678;6.074;2023-07-16T16:38:08;22.60;99.90
17619;DHT22;8928;51.678;6.074;2023-07-16T16:41:01;22.60;99.90
17619;DHT22;8928;51.678;6.074;2023-07-16T16:43:53;22.80;99.90
17619;DHT22;8928;51.678;6.074;2023-07-16T16:46:40;23.00;99.90
17619;DHT22;8928;51.678;6.074;2023-07-16T16:49:27;23.10;99.90
17619;DHT22;8928;51.678;6.074;2023-07-16T16:52:16;23.10;99.90
17619;DHT22;8928;51.678;6.074;2023-07-16T16:55:03;23.10;99.90
17619;DHT22;8928;51.678;6.074;2023-07-16T16:57:52;23.10;99.90
17619;DHT22;8928;51.678;6.074;2023-07-16T17:00:39;23.10;99.90
17619;DHT22;8928;51.678;6.074;2023-07-16T17:03:26;23.00;99.90
17619;DHT22;8928;51.678;6.074;2023-07-16T17:06:13;23.00;99.90
17619;DHT22;8928;51.678;6.074;2023-07-16T17:09:01;23.00;99.90
17619;DHT22;8928;51.678;6.074;2023-07-16T17:11:49;23.60;99.90
17619;DHT22;8928;51.678;6.074;2023-07-16T17:14:36;24.30;99.90
17619;DHT22;8928;51.678;6.074;2023-07-16T17:17:24;24.10;99.90
17619;DHT22;8928;51.678;6.074;2023-07-16T17:20:11;23.90;99.90
17619;DHT22;8928;51.678;6.074;2023-07-16T17:22:59;24.00;99.90
17619;DHT22;8928;51.678;6.074;2023-07-16T17:25:48;23.80;99.90
17619;DHT22;8928;51.678;6.074;2023-07-16T17:28:35;23.60;99.90
17619;DHT22;8928;51.678;6.074;2023-07-16T17:31:22;23.70;99.90
17619;DHT22;8928;51.678;6.074;2023-07-16T17:34:09;24.00;99.90
17619;DHT22;8928;51.678;6.074;2023-07-16T17:36:56;24.70;99.90
17619;DHT22;8928;51.678;6.074;2023-07-16T17:39:43;26.20;99.90
17619;DHT22;8928;51.678;6.074;2023-07-16T17:42:34;26.90;99.90
17619;DHT22;8928;51.678;6.074;2023-07-16T17:45:21;27.20;99.90
17619;DHT22;8928;51.678;6.074;2023-07-16T17:48:09;27.10;99.90
17619;DHT22;8928;51.678;6.074;2023-07-16T17:50:56;27.10;99.90
17619;DHT22;8928;51.678;6.074;2023-07-16T17:53:43;26.60;99.90
17619;DHT22;8928;51.678;6.074;2023-07-16T17:56:30;25.80;99.90